createdAt,value
2023-03-20T00:02:32.079Z,60.56
2023-03-20T00:07:57.570Z,60.55
2023-03-20T00:13:28.648Z,61.12
2023-03-20T00:18:53.283Z,61.73
2023-03-20T00:24:20.604Z,62.17
2023-03-20T00:29:46.205Z,62.68
2023-03-20T00:35:19.610Z,62.62
2023-03-20T00:40:45.028Z,62.66
2023-03-20T00:46:13.837Z,62.75
2023-03-20T00:51:38.611Z,62.78
2023-03-20T00:57:07.153Z,63.09
2023-03-20T01:02:32.082Z,63.17
2023-03-20T01:07:57.171Z,63.57
2023-03-20T01:13:24.813Z,63.94
2023-03-20T01:18:49.133Z,63.98
2023-03-20T01:24:13.727Z,63.98
2023-03-20T01:29:39.285Z,63.60
2023-03-20T01:35:04.442Z,63.29
2023-03-20T01:40:37.998Z,62.97
2023-03-20T01:46:18.592Z,62.77
2023-03-20T01:51:43.057Z,62.54
2023-03-20T01:57:17.589Z,62.31
2023-03-20T02:02:47.617Z,61.88
2023-03-20T02:08:37.335Z,61.64
2023-03-20T02:14:02.119Z,61.42
2023-03-20T02:19:52.600Z,61.35
2023-03-20T02:25:51.655Z,61.02
2023-03-20T02:31:56.951Z,61.21
2023-03-20T02:37:47.414Z,61.11
2023-03-20T02:43:25.732Z,60.50
2023-03-20T02:49:08.987Z,59.90
2023-03-20T02:54:44.354Z,59.81
2023-03-20T03:00:23.964Z,59.90
2023-03-20T03:05:55.024Z,60.08
2023-03-20T03:11:19.484Z,60.27
2023-03-20T03:16:46.701Z,60.22
2023-03-20T03:22:10.617Z,60.16
2023-03-20T03:27:41.492Z,60.10
2023-03-20T03:33:33.107Z,60.31
2023-03-20T03:39:19.279Z,60.27
2023-03-20T03:45:09.417Z,60.27
2023-03-20T03:50:49.059Z,60.40
2023-03-20T03:56:17.196Z,60.70
2023-03-20T04:01:44.716Z,60.77
2023-03-20T04:07:08.656Z,60.57
2023-03-20T04:12:43.663Z,60.42
2023-03-20T04:18:08.919Z,60.54
2023-03-20T04:23:35.950Z,60.83
2023-03-20T04:29:02.014Z,61.12
2023-03-20T04:34:44.298Z,61.13
2023-03-20T04:40:24.956Z,60.94
2023-03-20T04:45:49.453Z,60.86
2023-03-20T04:51:14.738Z,60.85
2023-03-20T04:56:46.208Z,61.17
2023-03-20T05:02:15.414Z,61.34
2023-03-20T05:07:39.522Z,61.51
2023-03-20T05:13:06.620Z,61.55
2023-03-20T05:18:48.407Z,61.24
2023-03-20T05:24:33.910Z,60.82
2023-03-20T05:30:14.786Z,60.37
2023-03-20T05:36:14.184Z,59.97
2023-03-20T05:41:52.293Z,59.87
2023-03-20T05:47:35.201Z,60.07
2023-03-20T05:53:19.497Z,60.59
2023-03-20T05:59:08.254Z,60.80
2023-03-20T06:04:56.414Z,60.89
2023-03-20T06:10:24.794Z,61.10
2023-03-20T06:15:48.883Z,61.40
2023-03-20T06:21:14.430Z,61.72
2023-03-20T06:26:39.359Z,62.05
2023-03-20T06:32:13.790Z,62.17
2023-03-20T06:37:38.663Z,62.00
2023-03-20T06:43:06.234Z,61.56
2023-03-20T06:48:38.573Z,61.34
2023-03-20T06:54:03.633Z,61.32
2023-03-20T06:59:28.567Z,61.16
2023-03-20T07:04:55.743Z,61.12
2023-03-20T07:10:24.021Z,60.97
2023-03-20T07:16:03.311Z,60.85
2023-03-20T07:21:30.390Z,60.88
2023-03-20T07:26:55.516Z,61.00
2023-03-20T07:32:19.764Z,60.97
2023-03-20T07:37:50.641Z,60.90
2023-03-20T07:43:18.625Z,60.54
2023-03-20T07:49:09.046Z,60.31
2023-03-20T07:54:33.321Z,60.34
2023-03-20T07:59:57.648Z,60.16
2023-03-20T08:05:21.446Z,60.07
2023-03-20T08:10:46.888Z,59.96
2023-03-20T08:16:11.190Z,59.55
2023-03-20T08:21:35.039Z,60.58
2023-03-20T08:26:59.093Z,63.76
2023-03-20T08:32:23.135Z,61.37
2023-03-20T08:37:47.227Z,60.30
2023-03-20T08:43:12.491Z,59.85
2023-03-20T08:48:37.143Z,59.54
2023-03-20T08:54:01.552Z,62.90
2023-03-20T08:59:25.553Z,62.05
2023-03-20T09:04:49.683Z,61.06
2023-03-20T09:10:13.903Z,60.52
2023-03-20T09:15:39.283Z,59.70
2023-03-20T09:21:04.203Z,59.60
2023-03-20T09:26:28.104Z,59.81
2023-03-20T09:31:54.042Z,63.16
2023-03-20T09:37:18.138Z,60.53
2023-03-20T09:42:59.191Z,58.96
2023-03-20T09:48:56.866Z,62.28
2023-03-20T09:54:52.728Z,60.35
2023-03-20T10:00:20.749Z,60.41
2023-03-20T10:06:04.805Z,63.08
2023-03-20T10:11:31.955Z,59.29
2023-03-20T10:17:05.554Z,60.86
2023-03-20T10:22:36.745Z,61.71
2023-03-20T10:28:04.531Z,58.99
2023-03-20T10:33:56.297Z,61.42
2023-03-20T10:39:36.362Z,61.99
2023-03-20T10:45:28.190Z,59.15
2023-03-20T10:50:55.892Z,61.76
2023-03-20T10:56:31.964Z,60.74
2023-03-20T11:01:56.882Z,59.14
2023-03-20T11:07:24.045Z,61.19
2023-03-20T11:12:49.901Z,61.26
2023-03-20T11:18:16.150Z,57.08
2023-03-20T11:23:41.131Z,59.98
2023-03-20T11:29:12.229Z,62.05
2023-03-20T11:34:38.353Z,62.27
2023-03-20T11:40:08.433Z,61.03
2023-03-20T11:45:38.260Z,56.45
2023-03-20T11:51:09.459Z,60.44
2023-03-20T11:56:35.853Z,63.81
2023-03-20T12:02:05.797Z,60.20
2023-03-20T12:07:38.483Z,62.29
2023-03-20T12:13:12.498Z,64.33
2023-03-20T12:18:42.361Z,63.45
2023-03-20T12:24:16.094Z,63.35
2023-03-20T12:29:50.478Z,64.24
2023-03-20T12:35:31.727Z,65.25
2023-03-20T12:41:13.569Z,65.23
2023-03-20T12:47:27.810Z,64.46
2023-03-20T12:53:09.828Z,63.97
2023-03-20T12:58:39.679Z,64.13
2023-03-20T13:04:35.832Z,64.09
2023-03-20T13:10:18.383Z,64.58
2023-03-20T13:16:09.720Z,65.11
2023-03-20T13:21:41.707Z,65.00
2023-03-20T13:27:23.626Z,64.61
2023-03-20T13:33:24.985Z,64.04
2023-03-20T13:39:01.175Z,63.67
2023-03-20T13:44:29.380Z,63.04
2023-03-20T13:50:31.569Z,62.35
2023-03-20T13:56:33.174Z,61.97
2023-03-20T14:02:34.119Z,60.93
2023-03-20T14:07:59.121Z,59.90
2023-03-20T14:13:26.085Z,59.88
2023-03-20T14:19:14.469Z,59.76
2023-03-20T14:24:40.851Z,59.83
2023-03-20T14:30:30.007Z,59.92
2023-03-20T14:36:18.954Z,60.30
2023-03-20T14:42:16.668Z,60.80
2023-03-20T14:47:52.735Z,60.99
2023-03-20T14:53:22.906Z,61.06
2023-03-20T14:58:49.550Z,61.09
2023-03-20T15:04:31.409Z,60.96
2023-03-20T15:10:00.019Z,60.89
2023-03-20T15:15:29.545Z,60.86
2023-03-20T15:20:56.808Z,60.96
2023-03-20T15:26:25.831Z,61.07
2023-03-20T15:32:12.928Z,60.99
2023-03-20T15:37:38.144Z,60.60
2023-03-20T15:43:14.164Z,60.01
2023-03-20T15:48:38.207Z,59.06
2023-03-20T15:54:08.314Z,63.53
2023-03-20T15:59:35.310Z,62.95
2023-03-20T16:05:00.096Z,61.51
2023-03-20T16:10:36.575Z,60.51
2023-03-20T16:16:02.901Z,60.54
2023-03-20T16:21:32.680Z,60.93
2023-03-20T16:26:58.809Z,60.62
2023-03-20T16:32:33.439Z,60.16
2023-03-20T16:38:01.665Z,59.98
2023-03-20T16:43:30.745Z,56.34
2023-03-20T16:48:59.466Z,57.93
2023-03-20T16:54:23.540Z,64.71
2023-03-20T16:59:48.533Z,63.86
2023-03-20T17:05:14.970Z,62.92
2023-03-20T17:10:40.942Z,62.22
2023-03-20T17:16:06.169Z,60.62
2023-03-20T17:21:30.553Z,59.74
2023-03-20T17:26:56.708Z,59.75
2023-03-20T17:32:24.356Z,60.16
2023-03-20T17:37:49.637Z,60.08
2023-03-20T17:43:15.961Z,60.08
2023-03-20T17:48:41.052Z,60.34
2023-03-20T17:54:05.873Z,60.46
2023-03-20T17:59:31.577Z,60.35
2023-03-20T18:04:55.969Z,59.91
2023-03-20T18:10:26.779Z,59.69
2023-03-20T18:15:53.919Z,59.89
2023-03-20T18:21:18.541Z,60.11
2023-03-20T18:26:44.475Z,60.43
2023-03-20T18:32:09.594Z,60.53
2023-03-20T18:37:33.715Z,60.82
2023-03-20T18:42:59.099Z,61.21
2023-03-20T18:48:25.515Z,61.49
2023-03-20T18:53:50.416Z,61.64
2023-03-20T18:59:14.801Z,61.70
2023-03-20T19:04:39.417Z,61.64
2023-03-20T19:10:03.993Z,61.69
2023-03-20T19:15:31.351Z,61.58
2023-03-20T19:20:58.402Z,60.98
2023-03-20T19:26:25.040Z,60.42
2023-03-20T19:31:49.848Z,60.23
2023-03-20T19:37:13.962Z,60.01
2023-03-20T19:42:59.861Z,59.59
2023-03-20T19:48:46.124Z,54.91
2023-03-20T19:54:14.206Z,53.55
2023-03-20T19:59:43.728Z,56.02
2023-03-20T20:05:18.366Z,58.29
2023-03-20T20:10:46.215Z,70.01
2023-03-20T20:16:10.733Z,70.88
2023-03-20T20:22:17.159Z,67.48
2023-03-20T20:27:21.933Z,65.11
2023-03-20T20:32:47.667Z,63.67
2023-03-20T20:38:44.607Z,62.72
2023-03-20T20:44:16.233Z,62.11
2023-03-20T20:49:42.208Z,61.49
2023-03-20T20:55:22.052Z,61.17
2023-03-20T21:00:54.733Z,61.15
2023-03-20T21:06:21.952Z,61.76
2023-03-20T21:11:47.197Z,62.40
2023-03-20T21:17:12.256Z,63.08
2023-03-20T21:22:38.051Z,63.42
2023-03-20T21:28:04.577Z,63.58
2023-03-20T21:33:31.941Z,63.45
2023-03-20T21:39:13.411Z,63.19
2023-03-20T21:45:34.491Z,62.98
2023-03-20T21:51:15.124Z,62.62
2023-03-20T21:56:48.979Z,62.68
2023-03-20T22:02:19.176Z,62.83
2023-03-20T22:08:18.512Z,62.83
2023-03-20T22:20:07.195Z,63.07
2023-03-20T22:25:45.918Z,63.39
2023-03-20T22:31:28.711Z,63.72
2023-03-20T22:42:52.954Z,63.94
2023-03-20T22:47:56.701Z,63.82
2023-03-20T22:53:20.628Z,63.70
2023-03-20T22:58:44.898Z,63.78
2023-03-20T23:04:09.481Z,64.04
2023-03-20T23:09:35.557Z,63.96
2023-03-20T23:15:00.032Z,63.16
2023-03-20T23:20:24.426Z,62.87
2023-03-20T23:25:48.763Z,62.60
2023-03-20T23:31:16.184Z,62.04
2023-03-20T23:36:40.439Z,61.30
2023-03-20T23:42:17.332Z,61.52
2023-03-20T23:47:46.038Z,61.72
2023-03-20T23:53:19.934Z,61.44
2023-03-20T23:58:59.464Z,61.04
